Fair Grove, Missouri
Current Conditions -  °F | °C
As of 3:52 AM on Monday 20 Oct 2014 (Local Time) from KSGF Reporting Station
Overcast Overcast  
Wind Chill: 54°   Ceiling: 8000
Heat Index: 54°   Visibility: 10mi
Dew Point: 50°   Wind: 6mph
Humidity: 86%   Direction: 190°S
Pressure: 30.03"   Gusts: NA
Location:  37.38°N, 93.15°W
Report Text: KSGF 200852Z 19005KT 10SM BKN080 OVC095 12/10 A3003 RMK AO2 SLP165 T01220100 58007
Loading
Personal Weather Stations






























Interactive Weather Map
Tropical Storm Tracking
New forecast layout! Learn more

10-Day Weather Forecast

Advertisements
Track Severe Weather on mobile